createdAt,value
2022-10-19T00:02:24.933Z,21.20
2022-10-19T00:04:50.505Z,21.22
2022-10-19T00:07:16.054Z,21.20
2022-10-19T00:09:43.192Z,21.21
2022-10-19T00:12:08.731Z,21.21
2022-10-19T00:14:34.280Z,21.21
2022-10-19T00:16:59.816Z,21.21
2022-10-19T00:19:25.686Z,21.20
2022-10-19T00:24:21.805Z,21.20
2022-10-19T00:26:47.344Z,21.19
2022-10-19T00:29:13.073Z,21.20
2022-10-19T00:31:38.673Z,21.19
2022-10-19T00:34:04.259Z,21.20
2022-10-19T00:36:31.272Z,21.19
2022-10-19T00:38:57.000Z,21.19
2022-10-19T00:41:23.169Z,21.20
2022-10-19T00:43:50.279Z,21.19
2022-10-19T00:46:15.815Z,21.19
2022-10-19T00:48:41.384Z,21.20
2022-10-19T00:51:06.950Z,21.19
2022-10-19T00:53:32.508Z,21.20
2022-10-19T00:55:58.857Z,21.19
2022-10-19T00:58:24.410Z,21.18
2022-10-19T01:00:50.033Z,21.17
2022-10-19T01:03:15.644Z,21.18
2022-10-19T01:05:41.184Z,21.17
2022-10-19T01:08:06.738Z,21.18
2022-10-19T01:10:36.798Z,21.19
2022-10-19T01:13:06.085Z,21.19
2022-10-19T01:18:20.896Z,21.17
2022-10-19T01:20:52.428Z,21.18
2022-10-19T01:23:37.898Z,21.18
2022-10-19T01:26:23.315Z,21.17
2022-10-19T01:28:55.150Z,21.18
2022-10-19T01:31:25.722Z,21.18
2022-10-19T01:34:01.679Z,21.18
2022-10-19T01:36:32.153Z,21.18
2022-10-19T01:39:16.904Z,21.18
2022-10-19T01:42:02.379Z,21.17
2022-10-19T01:44:30.960Z,21.17
2022-10-19T01:46:57.531Z,21.17
2022-10-19T01:49:24.615Z,21.16
2022-10-19T01:51:52.168Z,21.17
2022-10-19T01:54:17.771Z,21.16
2022-10-19T01:56:43.338Z,21.17
2022-10-19T01:59:08.908Z,21.16
2022-10-19T02:01:34.781Z,21.16
2022-10-19T02:04:00.355Z,21.16
2022-10-19T02:06:25.896Z,21.17
2022-10-19T02:08:52.084Z,21.16
2022-10-19T02:11:18.033Z,21.17
2022-10-19T02:13:43.896Z,21.17
2022-10-19T02:16:12.173Z,21.16
2022-10-19T02:18:38.837Z,21.16
2022-10-19T02:21:04.520Z,21.16
2022-10-19T02:23:30.078Z,21.16
2022-10-19T02:25:55.628Z,21.15
2022-10-19T02:28:21.284Z,21.16
2022-10-19T02:30:46.845Z,21.15
2022-10-19T02:33:12.479Z,21.14
2022-10-19T02:35:38.031Z,21.15
2022-10-19T02:38:03.583Z,21.16
2022-10-19T02:40:31.123Z,21.15
2022-10-19T02:42:58.587Z,21.15
2022-10-19T02:45:25.608Z,21.15
2022-10-19T02:47:54.178Z,21.14
2022-10-19T02:50:19.751Z,21.14
2022-10-19T02:52:45.297Z,21.15
2022-10-19T02:55:10.838Z,21.15
2022-10-19T02:57:36.943Z,21.15
2022-10-19T03:00:03.896Z,21.15
2022-10-19T03:02:29.439Z,21.15
2022-10-19T03:04:54.977Z,21.14
2022-10-19T03:07:20.627Z,21.14
2022-10-19T03:09:46.252Z,21.15
2022-10-19T03:12:12.228Z,21.14
2022-10-19T03:14:37.772Z,21.14
2022-10-19T03:17:03.308Z,21.15
2022-10-19T03:19:28.851Z,21.14
2022-10-19T03:21:54.387Z,21.15
2022-10-19T03:24:19.930Z,21.15
2022-10-19T03:26:45.472Z,21.14
2022-10-19T03:29:11.031Z,21.14
2022-10-19T03:31:36.586Z,21.15
2022-10-19T03:34:02.154Z,21.14
2022-10-19T03:36:28.841Z,21.14
2022-10-19T03:38:55.135Z,21.14
2022-10-19T03:41:21.065Z,21.13
2022-10-19T03:43:46.857Z,21.13
2022-10-19T03:46:12.439Z,21.14
2022-10-19T03:48:37.992Z,21.13
2022-10-19T03:51:04.983Z,21.14
2022-10-19T03:53:32.548Z,21.14
2022-10-19T03:56:06.853Z,21.14
2022-10-19T03:58:32.856Z,21.13
2022-10-19T04:00:58.477Z,21.14
2022-10-19T04:03:24.336Z,21.13
2022-10-19T04:05:49.936Z,21.13
2022-10-19T04:08:15.608Z,21.13
2022-10-19T04:10:41.152Z,21.13
2022-10-19T04:13:06.705Z,21.13
2022-10-19T04:15:32.243Z,21.13
2022-10-19T04:17:57.800Z,21.13
2022-10-19T04:20:23.349Z,21.13
2022-10-19T04:22:48.899Z,21.13
2022-10-19T04:25:14.477Z,21.12
2022-10-19T04:27:40.027Z,21.13
2022-10-19T04:30:05.804Z,21.12
2022-10-19T04:32:31.352Z,21.12
2022-10-19T04:34:56.900Z,21.12
2022-10-19T04:37:22.440Z,21.13
2022-10-19T04:39:47.995Z,21.13
2022-10-19T04:42:13.535Z,21.13
2022-10-19T04:44:39.079Z,21.12
2022-10-19T04:47:04.619Z,21.11
2022-10-19T04:49:30.173Z,21.12
2022-10-19T04:51:55.716Z,21.11
2022-10-19T04:54:21.275Z,21.12
2022-10-19T04:56:46.812Z,21.12
2022-10-19T04:59:12.360Z,21.11
2022-10-19T05:01:37.904Z,21.11
2022-10-19T05:04:03.501Z,21.11
2022-10-19T05:06:29.437Z,21.12
2022-10-19T05:08:55.132Z,21.11
2022-10-19T05:11:20.682Z,21.11
2022-10-19T05:13:46.356Z,21.11
2022-10-19T05:16:12.992Z,21.11
2022-10-19T05:18:38.542Z,21.11
2022-10-19T05:21:06.344Z,21.11
2022-10-19T05:26:03.343Z,21.11
2022-10-19T05:28:28.957Z,21.08
2022-10-19T05:30:54.841Z,21.08
2022-10-19T05:33:20.384Z,21.08
2022-10-19T05:35:45.926Z,21.08
2022-10-19T05:38:11.477Z,21.09
2022-10-19T05:40:37.018Z,21.09
2022-10-19T05:43:02.571Z,21.10
2022-10-19T05:45:28.113Z,21.09
2022-10-19T05:47:53.659Z,21.10
2022-10-19T05:50:19.195Z,21.08
2022-10-19T05:52:44.744Z,21.08
2022-10-19T05:55:10.283Z,21.08
2022-10-19T05:57:36.107Z,21.10
2022-10-19T06:00:03.378Z,21.10
2022-10-19T06:02:28.928Z,21.07
2022-10-19T06:04:54.468Z,21.07
2022-10-19T06:07:20.010Z,21.10
2022-10-19T06:09:45.573Z,21.09
2022-10-19T06:12:11.110Z,21.08
2022-10-19T06:14:36.746Z,21.09
2022-10-19T06:17:02.333Z,21.09
2022-10-19T06:19:27.886Z,21.09
2022-10-19T06:21:53.439Z,21.09
2022-10-19T06:24:18.991Z,20.97
2022-10-19T06:26:44.534Z,21.07
2022-10-19T06:29:10.085Z,21.09
2022-10-19T06:31:35.748Z,21.11
2022-10-19T06:34:01.395Z,21.10
2022-10-19T06:36:27.886Z,21.09
2022-10-19T06:38:53.436Z,21.12
2022-10-19T06:41:19.242Z,21.12
2022-10-19T06:43:48.227Z,21.12
2022-10-19T06:46:16.573Z,21.12
2022-10-19T06:48:42.198Z,21.13
2022-10-19T06:51:07.737Z,21.13
2022-10-19T06:53:34.030Z,21.13
2022-10-19T06:56:01.265Z,21.13
2022-10-19T06:58:27.018Z,21.14
2022-10-19T07:00:54.369Z,21.14
2022-10-19T07:03:19.930Z,21.14
2022-10-19T07:05:51.535Z,21.15
2022-10-19T07:08:17.103Z,21.15
2022-10-19T07:10:42.661Z,21.16
2022-10-19T07:15:38.715Z,21.17
2022-10-19T07:18:04.270Z,21.15
2022-10-19T07:20:29.811Z,21.02
2022-10-19T07:22:55.363Z,20.96
2022-10-19T07:25:20.912Z,21.10
2022-10-19T07:27:46.484Z,21.14
2022-10-19T07:30:12.039Z,21.14
2022-10-19T07:32:37.587Z,21.16
2022-10-19T07:35:03.281Z,21.17
2022-10-19T07:37:28.833Z,21.17
2022-10-19T07:39:54.384Z,21.17
2022-10-19T07:42:19.928Z,21.19
2022-10-19T07:44:45.518Z,21.05
2022-10-19T07:47:11.065Z,21.04
2022-10-19T07:49:36.626Z,21.16
2022-10-19T07:52:02.164Z,21.20
2022-10-19T07:54:27.743Z,21.21
2022-10-19T07:56:53.289Z,21.22
2022-10-19T07:59:18.824Z,21.22
2022-10-19T08:01:44.465Z,21.19
2022-10-19T08:06:55.551Z,21.20
2022-10-19T08:09:47.753Z,21.19
2022-10-19T08:12:06.722Z,21.11
2022-10-19T08:14:32.282Z,21.18
2022-10-19T08:16:57.860Z,21.22
2022-10-19T08:19:23.542Z,21.21
2022-10-19T08:21:49.094Z,21.21
2022-10-19T08:24:15.451Z,21.20
2022-10-19T08:26:41.166Z,21.20
2022-10-19T08:29:07.779Z,21.15
2022-10-19T08:31:33.325Z,21.19
2022-10-19T08:33:58.866Z,21.21
2022-10-19T08:36:25.200Z,21.22
2022-10-19T08:38:50.949Z,21.22
2022-10-19T08:41:36.447Z,21.22
2022-10-19T08:44:09.182Z,21.19
2022-10-19T08:46:55.684Z,21.22
2022-10-19T08:49:22.150Z,21.21
2022-10-19T08:51:50.263Z,21.21
2022-10-19T08:54:16.230Z,21.11
2022-10-19T08:56:52.123Z,21.16
2022-10-19T08:59:30.149Z,21.14
2022-10-19T09:01:58.399Z,21.20
2022-10-19T09:04:43.842Z,21.23
2022-10-19T09:07:26.530Z,21.20
2022-10-19T09:10:01.088Z,21.16
2022-10-19T09:12:46.556Z,21.18
2022-10-19T09:15:12.623Z,21.21
2022-10-19T09:17:38.183Z,21.21
2022-10-19T09:20:20.360Z,21.22
2022-10-19T09:22:46.190Z,21.23
2022-10-19T09:25:12.975Z,21.23
2022-10-19T09:27:39.130Z,21.23
2022-10-19T09:30:05.659Z,21.24
2022-10-19T09:32:32.216Z,21.23
2022-10-19T09:35:01.413Z,21.27
2022-10-19T09:37:27.631Z,21.28
2022-10-19T09:39:55.348Z,21.26
2022-10-19T09:42:29.545Z,21.24
2022-10-19T09:44:55.421Z,21.23
2022-10-19T09:47:31.634Z,21.25
2022-10-19T09:50:17.373Z,21.20
2022-10-19T09:52:43.470Z,21.22
2022-10-19T09:57:56.808Z,21.14
2022-10-19T10:00:23.543Z,21.22
2022-10-19T10:02:49.747Z,21.22
2022-10-19T10:05:15.481Z,21.23
2022-10-19T10:07:41.025Z,21.26
2022-10-19T10:10:08.418Z,21.27
2022-10-19T10:12:34.943Z,21.25
2022-10-19T10:15:01.759Z,21.18
2022-10-19T10:17:27.659Z,21.25
2022-10-19T10:20:04.208Z,21.27
2022-10-19T10:22:32.757Z,21.28
2022-10-19T10:24:58.541Z,20.66
2022-10-19T10:27:27.150Z,20.98
2022-10-19T10:29:54.263Z,21.12
2022-10-19T10:32:19.816Z,21.18
2022-10-19T10:34:51.910Z,21.22
2022-10-19T10:37:20.478Z,21.29
2022-10-19T10:39:46.026Z,21.36
2022-10-19T10:42:14.417Z,21.41
2022-10-19T10:44:43.169Z,21.43
2022-10-19T10:47:13.048Z,21.41
2022-10-19T10:49:40.743Z,21.40
2022-10-19T10:52:09.306Z,21.36
2022-10-19T10:54:34.895Z,21.30
2022-10-19T10:57:12.254Z,21.31
2022-10-19T10:59:43.108Z,21.34
2022-10-19T11:02:14.046Z,21.33
2022-10-19T11:04:41.623Z,21.35
2022-10-19T11:07:12.006Z,21.35
2022-10-19T11:09:37.814Z,21.35
2022-10-19T11:12:03.876Z,21.36
2022-10-19T11:14:38.421Z,21.33
2022-10-19T11:17:04.907Z,21.36
2022-10-19T11:19:33.626Z,21.37
2022-10-19T11:22:03.752Z,21.37
2022-10-19T11:24:49.192Z,21.40
2022-10-19T11:27:21.358Z,21.39
2022-10-19T11:30:06.786Z,21.39
2022-10-19T11:32:37.233Z,21.40
2022-10-19T11:35:11.400Z,21.40
2022-10-19T11:38:18.209Z,21.40
2022-10-19T11:40:54.251Z,21.23
2022-10-19T11:43:37.555Z,21.36
2022-10-19T11:46:22.970Z,21.39
2022-10-19T11:48:54.875Z,21.32
2022-10-19T11:51:40.504Z,21.41
2022-10-19T11:54:14.617Z,21.42
2022-10-19T11:57:02.927Z,21.42
2022-10-19T11:59:49.738Z,21.42
2022-10-19T12:02:35.536Z,21.43
2022-10-19T12:05:02.915Z,21.43
2022-10-19T12:07:39.107Z,21.42
2022-10-19T12:10:24.578Z,21.27
2022-10-19T12:12:51.258Z,21.39
2022-10-19T12:15:22.917Z,21.11
2022-10-19T12:17:49.202Z,20.46
2022-10-19T12:20:19.681Z,20.99
2022-10-19T12:22:45.573Z,21.18
2022-10-19T12:25:12.139Z,21.26
2022-10-19T12:27:37.977Z,21.32
2022-10-19T12:30:07.074Z,21.36
2022-10-19T12:32:35.535Z,21.39
2022-10-19T12:35:06.886Z,21.39
2022-10-19T12:37:34.417Z,21.41
2022-10-19T12:40:04.579Z,21.39
2022-10-19T12:42:33.446Z,21.40
2022-10-19T12:45:04.782Z,21.43
2022-10-19T12:47:30.332Z,21.43
2022-10-19T12:49:56.033Z,21.43
2022-10-19T12:52:41.527Z,21.42
2022-10-19T12:55:16.948Z,21.43
2022-10-19T12:57:47.294Z,21.42
2022-10-19T13:00:21.143Z,21.40
2022-10-19T13:02:47.297Z,21.42
2022-10-19T13:05:20.490Z,21.44
2022-10-19T13:07:47.127Z,21.45
2022-10-19T13:10:17.450Z,21.46
2022-10-19T13:12:44.433Z,21.47
2022-10-19T13:15:29.943Z,21.45
2022-10-19T13:17:55.493Z,21.44
2022-10-19T13:23:02.732Z,21.43
2022-10-19T13:25:29.223Z,21.45
2022-10-19T13:27:55.650Z,21.42
2022-10-19T13:36:08.035Z,21.47
2022-10-19T13:38:53.479Z,21.45
2022-10-19T13:41:20.989Z,21.49
2022-10-19T13:44:02.532Z,21.50
2022-10-19T13:46:30.812Z,21.49
2022-10-19T13:49:02.445Z,21.48
2022-10-19T13:51:31.411Z,21.51
2022-10-19T13:54:01.027Z,21.51
2022-10-19T13:56:29.329Z,21.50
2022-10-19T13:59:01.571Z,21.51
2022-10-19T14:01:47.009Z,21.49
2022-10-19T14:04:17.733Z,21.49
2022-10-19T14:06:46.861Z,21.49
2022-10-19T14:09:16.664Z,21.50
2022-10-19T14:11:42.715Z,21.52
2022-10-19T14:16:44.718Z,21.47
2022-10-19T14:19:12.021Z,21.46
2022-10-19T14:21:37.566Z,21.50
2022-10-19T14:24:09.323Z,21.48
2022-10-19T14:26:34.875Z,21.50
2022-10-19T14:29:00.442Z,21.49
2022-10-19T14:31:40.986Z,21.49
2022-10-19T14:34:06.840Z,21.50
2022-10-19T14:36:35.519Z,21.50
2022-10-19T14:39:01.066Z,21.50
2022-10-19T14:44:02.218Z,21.49
2022-10-19T14:46:28.490Z,21.49
2022-10-19T14:48:57.819Z,21.49
2022-10-19T14:51:43.250Z,21.50
2022-10-19T14:54:14.543Z,21.50
2022-10-19T14:56:42.603Z,21.49
2022-10-19T14:59:18.743Z,21.50
2022-10-19T15:01:48.111Z,21.43
2022-10-19T15:04:17.199Z,21.42
2022-10-19T15:06:42.752Z,21.43
2022-10-19T15:09:15.441Z,21.45
2022-10-19T15:11:50.223Z,21.45
2022-10-19T15:14:17.014Z,21.43
2022-10-19T15:16:43.900Z,21.42
2022-10-19T15:19:14.301Z,21.43
2022-10-19T15:21:39.851Z,21.43
2022-10-19T15:24:06.311Z,21.44
2022-10-19T15:26:31.868Z,21.42
2022-10-19T15:29:17.311Z,21.43
2022-10-19T15:31:42.862Z,21.46
2022-10-19T15:34:15.611Z,21.46
2022-10-19T15:36:45.993Z,21.44
2022-10-19T15:39:25.192Z,21.43
2022-10-19T15:42:18.172Z,21.45
2022-10-19T15:44:43.736Z,21.44
2022-10-19T15:47:18.194Z,21.43
2022-10-19T15:49:46.462Z,21.43
2022-10-19T15:52:13.355Z,21.41
2022-10-19T15:54:38.894Z,21.44
2022-10-19T15:57:15.885Z,21.48
2022-10-19T15:59:41.431Z,21.46
2022-10-19T16:02:12.169Z,21.46
2022-10-19T16:04:37.710Z,21.47
2022-10-19T16:07:03.262Z,21.46
2022-10-19T16:09:28.875Z,21.47
2022-10-19T16:11:56.518Z,21.48
2022-10-19T16:14:22.581Z,21.48
2022-10-19T16:16:48.218Z,21.48
2022-10-19T16:19:13.766Z,21.48
2022-10-19T16:21:39.337Z,21.47
2022-10-19T16:24:04.950Z,21.46
2022-10-19T16:26:31.531Z,21.46
2022-10-19T16:28:57.089Z,21.44
2022-10-19T16:31:22.777Z,21.44
2022-10-19T16:33:48.319Z,21.42
2022-10-19T16:36:13.883Z,21.43
2022-10-19T16:38:39.491Z,21.42
2022-10-19T16:41:06.305Z,21.41
2022-10-19T16:43:31.914Z,21.41
2022-10-19T16:45:57.515Z,21.42
2022-10-19T16:48:24.018Z,21.41
2022-10-19T16:53:39.381Z,21.39
2022-10-19T16:56:05.790Z,21.39
2022-10-19T16:58:31.327Z,21.39
2022-10-19T17:01:00.536Z,21.39
2022-10-19T17:03:27.364Z,21.39
2022-10-19T17:05:52.918Z,21.37
2022-10-19T17:08:18.457Z,21.37
2022-10-19T17:10:44.004Z,21.37
2022-10-19T17:13:09.543Z,21.37
2022-10-19T17:15:43.771Z,21.37
2022-10-19T17:18:09.378Z,21.37
2022-10-19T17:20:34.981Z,21.38
2022-10-19T17:23:00.522Z,21.37
2022-10-19T17:25:26.061Z,21.34
2022-10-19T17:27:51.627Z,21.33
2022-10-19T17:30:17.316Z,21.36
2022-10-19T17:32:42.866Z,21.38
2022-10-19T17:35:08.422Z,21.36
2022-10-19T17:37:34.200Z,21.36
2022-10-19T17:39:59.987Z,21.35
2022-10-19T17:42:25.535Z,21.35
2022-10-19T17:44:52.650Z,21.37
2022-10-19T17:47:18.199Z,21.36
2022-10-19T17:49:43.747Z,21.34
2022-10-19T17:52:09.298Z,21.36
2022-10-19T17:54:43.534Z,21.37
2022-10-19T17:57:20.006Z,21.33
2022-10-19T17:59:52.581Z,21.34
2022-10-19T18:02:18.723Z,21.34
2022-10-19T18:04:44.258Z,21.33
2022-10-19T18:07:09.805Z,21.34
2022-10-19T18:09:35.338Z,21.34
2022-10-19T18:12:04.905Z,21.34
2022-10-19T18:14:32.760Z,21.32
2022-10-19T18:16:58.318Z,21.34
2022-10-19T18:19:23.875Z,21.34
2022-10-19T18:21:49.433Z,21.33
2022-10-19T18:24:18.733Z,21.33
2022-10-19T18:26:44.370Z,21.34
2022-10-19T18:29:11.290Z,21.35
2022-10-19T18:31:37.078Z,21.35
2022-10-19T18:34:03.229Z,21.34
2022-10-19T18:36:28.898Z,21.33
2022-10-19T18:38:55.246Z,21.34
2022-10-19T18:41:20.863Z,21.34
2022-10-19T18:43:49.883Z,21.34
2022-10-19T18:46:17.053Z,21.34
2022-10-19T18:48:42.593Z,21.34
2022-10-19T18:51:08.328Z,21.31
2022-10-19T18:53:34.020Z,21.33
2022-10-19T18:56:00.166Z,21.33
2022-10-19T18:58:25.791Z,21.34
2022-10-19T19:01:11.370Z,21.33
2022-10-19T19:03:37.713Z,21.32
2022-10-19T19:06:04.192Z,21.32
2022-10-19T19:08:29.806Z,21.32
2022-10-19T19:10:55.678Z,21.32
2022-10-19T19:13:21.292Z,21.31
2022-10-19T19:16:01.815Z,21.33
2022-10-19T19:18:28.350Z,21.32
2022-10-19T19:20:53.900Z,21.33
2022-10-19T19:23:19.437Z,21.33
2022-10-19T19:25:44.979Z,21.32
2022-10-19T19:28:10.534Z,21.33
2022-10-19T19:30:40.366Z,21.32
2022-10-19T19:33:05.923Z,21.30
2022-10-19T19:35:32.330Z,21.32
2022-10-19T19:37:57.878Z,21.31
2022-10-19T19:40:23.437Z,21.30
2022-10-19T19:42:48.986Z,21.31
2022-10-19T19:45:14.533Z,21.31
2022-10-19T19:47:40.091Z,21.31
2022-10-19T19:50:05.888Z,21.31
2022-10-19T19:52:31.443Z,21.32
2022-10-19T19:54:57.192Z,21.30
2022-10-19T19:57:22.747Z,21.31
2022-10-19T19:59:48.291Z,21.31
2022-10-19T20:02:15.614Z,21.29
2022-10-19T20:04:41.154Z,21.29
2022-10-19T20:07:06.701Z,21.32
2022-10-19T20:09:32.339Z,21.30
2022-10-19T20:11:57.915Z,21.30
2022-10-19T20:14:23.466Z,21.31
2022-10-19T20:16:49.014Z,21.29
2022-10-19T20:19:14.546Z,21.30
2022-10-19T20:21:40.378Z,21.31
2022-10-19T20:24:05.996Z,21.30
2022-10-19T20:26:31.640Z,21.30
2022-10-19T20:28:57.182Z,21.30
2022-10-19T20:31:24.329Z,21.30
2022-10-19T20:33:49.918Z,21.30
2022-10-19T20:36:16.638Z,21.29
2022-10-19T20:38:46.067Z,21.30
2022-10-19T20:41:11.614Z,21.28
2022-10-19T20:43:37.166Z,21.29
2022-10-19T20:46:03.383Z,21.29
2022-10-19T20:48:28.959Z,21.28
2022-10-19T20:50:54.506Z,21.29
2022-10-19T20:53:20.042Z,21.29
2022-10-19T20:55:45.597Z,21.28
2022-10-19T20:58:11.130Z,21.29
2022-10-19T21:00:36.675Z,21.29
2022-10-19T21:03:02.237Z,21.27
2022-10-19T21:05:27.781Z,21.27
2022-10-19T21:07:53.343Z,21.27
2022-10-19T21:10:18.891Z,21.28
2022-10-19T21:12:44.442Z,21.27
2022-10-19T21:15:10.062Z,21.28
2022-10-19T21:17:35.611Z,21.27
2022-10-19T21:20:01.159Z,21.27
2022-10-19T21:22:26.713Z,21.27
2022-10-19T21:24:52.271Z,21.27
2022-10-19T21:27:17.826Z,21.26
2022-10-19T21:29:43.374Z,21.26
2022-10-19T21:32:08.950Z,21.27
2022-10-19T21:34:34.491Z,21.26
2022-10-19T21:37:00.039Z,21.26
2022-10-19T21:39:25.578Z,21.27
2022-10-19T21:41:51.300Z,21.26
2022-10-19T21:44:17.094Z,21.27
2022-10-19T21:46:43.127Z,21.26
2022-10-19T21:49:09.602Z,21.25
2022-10-19T21:51:43.456Z,21.25
2022-10-19T21:56:41.318Z,21.27
2022-10-19T21:59:06.951Z,21.26
2022-10-19T22:01:37.255Z,21.26
2022-10-19T22:04:06.423Z,21.25
2022-10-19T22:06:32.810Z,21.26
2022-10-19T22:08:58.708Z,21.25
2022-10-19T22:11:24.440Z,21.26
2022-10-19T22:13:54.160Z,21.24
2022-10-19T22:16:19.879Z,21.25
2022-10-19T22:18:45.455Z,21.25
2022-10-19T22:21:12.531Z,21.25
2022-10-19T22:23:38.119Z,21.25
2022-10-19T22:26:20.867Z,21.24
2022-10-19T22:28:46.419Z,21.25
2022-10-19T22:31:12.136Z,21.23
2022-10-19T22:33:37.679Z,21.23
2022-10-19T22:36:04.407Z,21.24
2022-10-19T22:38:29.942Z,21.23
2022-10-19T22:40:55.483Z,21.25
2022-10-19T22:43:21.041Z,21.23
2022-10-19T22:45:47.000Z,21.24
2022-10-19T22:48:12.680Z,21.23
2022-10-19T22:50:38.218Z,21.23
2022-10-19T22:53:03.771Z,21.23
2022-10-19T22:55:29.318Z,21.22
2022-10-19T22:57:54.868Z,21.23
2022-10-19T23:00:20.408Z,21.22
2022-10-19T23:02:45.963Z,21.22
2022-10-19T23:05:11.506Z,21.22
2022-10-19T23:07:37.778Z,21.22
2022-10-19T23:10:04.003Z,21.22
2022-10-19T23:12:29.543Z,21.22
2022-10-19T23:14:55.078Z,21.21
2022-10-19T23:17:20.632Z,21.21
2022-10-19T23:19:46.175Z,21.21
2022-10-19T23:22:11.720Z,21.22
2022-10-19T23:24:37.260Z,21.21
2022-10-19T23:27:02.875Z,21.22
2022-10-19T23:29:28.414Z,21.21
2022-10-19T23:31:53.966Z,21.21
2022-10-19T23:34:19.504Z,21.21
2022-10-19T23:36:45.047Z,21.21
2022-10-19T23:39:10.594Z,21.21
2022-10-19T23:41:36.143Z,21.21
2022-10-19T23:44:02.057Z,21.21
2022-10-19T23:46:27.605Z,21.20
2022-10-19T23:48:53.138Z,21.21
2022-10-19T23:51:19.088Z,21.21
2022-10-19T23:53:45.146Z,21.22
2022-10-19T23:56:15.121Z,21.20
2022-10-19T23:58:40.676Z,21.21
